Time;durP1;ratioP1;P1;durP2;ratioP2;P2;SDS_P1;SDS_P2;PMS_P1;PMS_P2;Temp;Humidity;BMP_temperature;BMP_pressure;BME280_temperature;BME280_humidity;BME280_pressure;Samples;Min_cycle;Max_cycle;Signal;HPM_P1;HPM_P2
2024/04/14 00:01:45;;;;;;;;;;;21.50;49.90;;;;;;1512792;76;791;-68
2024/04/14 00:03:49;;;;;;;;;;;21.60;49.90;;;;;;1512242;76;1618;-67
2024/04/14 00:05:51;;;;;;;;;;;21.50;49.80;;;;;;1508192;76;1786;-68
2024/04/14 00:07:53;;;;;;;;;;;21.50;49.90;;;;;;1508196;76;644;-69
2024/04/14 00:09:54;;;;;;;;;;;21.50;49.90;;;;;;1514982;76;1157;-70
2024/04/14 00:11:56;;;;;;;;;;;21.60;50.00;;;;;;1517211;77;624;-68
2024/04/14 00:13:58;;;;;;;;;;;21.50;50.00;;;;;;1520524;76;800;-70
2024/04/14 00:16:01;;;;;;;;;;;21.60;50.00;;;;;;1518400;76;818;-69
2024/04/14 00:18:03;;;;;;;;;;;21.50;50.00;;;;;;1519058;78;1926;-67
2024/04/14 00:20:06;;;;;;;;;;;21.60;50.00;;;;;;1515508;76;1051;-67
2024/04/14 00:22:08;;;;;;;;;;;21.60;50.00;;;;;;1511187;76;1091;-67
2024/04/14 00:24:10;;;;;;;;;;;21.60;50.00;;;;;;1503542;77;672;-68
2024/04/14 00:26:12;;;;;;;;;;;21.50;50.10;;;;;;1506243;78;737;-71
2024/04/14 00:28:13;;;;;;;;;;;21.60;50.20;;;;;;1505309;77;763;-68
2024/04/14 00:30:15;;;;;;;;;;;21.60;50.10;;;;;;1498889;78;662;-68
2024/04/14 00:32:17;;;;;;;;;;;21.60;50.10;;;;;;1497685;77;1581;-67
2024/04/14 00:34:21;;;;;;;;;;;21.50;50.10;;;;;;1497440;78;752;-68
2024/04/14 00:36:23;;;;;;;;;;;21.60;50.10;;;;;;1505058;78;686;-67
2024/04/14 00:38:24;;;;;;;;;;;21.60;50.10;;;;;;1499383;77;1942;-70
2024/04/14 00:40:26;;;;;;;;;;;21.60;50.10;;;;;;1503855;77;623;-67
2024/04/14 00:42:28;;;;;;;;;;;21.50;50.10;;;;;;1506195;77;780;-68
2024/04/14 00:44:30;;;;;;;;;;;21.60;50.00;;;;;;1493140;78;675;-70
2024/04/14 00:46:32;;;;;;;;;;;21.60;50.00;;;;;;1499539;78;1573;-70
2024/04/14 00:48:34;;;;;;;;;;;21.50;50.20;;;;;;1502161;77;1159;-68
2024/04/14 00:50:36;;;;;;;;;;;21.50;50.20;;;;;;1512332;77;787;-68
2024/04/14 00:52:38;;;;;;;;;;;21.60;50.20;;;;;;1501577;77;668;-71
2024/04/14 00:54:39;;;;;;;;;;;21.50;50.20;;;;;;1505164;77;714;-67
2024/04/14 00:56:41;;;;;;;;;;;21.50;50.20;;;;;;1507048;77;658;-71
2024/04/14 00:58:44;;;;;;;;;;;21.50;50.20;;;;;;1497659;77;1950;-68
2024/04/14 01:00:46;;;;;;;;;;;21.60;50.20;;;;;;1508667;77;1680;-68
2024/04/14 01:02:50;;;;;;;;;;;21.60;50.30;;;;;;1500768;77;739;-68
2024/04/14 01:04:51;;;;;;;;;;;21.60;50.30;;;;;;1507042;78;1659;-68
2024/04/14 01:06:53;;;;;;;;;;;21.60;50.30;;;;;;1510974;78;649;-69
2024/04/14 01:08:55;;;;;;;;;;;21.60;50.20;;;;;;1501161;78;1201;-69
2024/04/14 01:10:57;;;;;;;;;;;21.50;50.20;;;;;;1496568;78;575;-70
2024/04/14 01:12:59;;;;;;;;;;;21.60;50.30;;;;;;1498964;77;1350;-68
2024/04/14 01:15:01;;;;;;;;;;;21.60;50.30;;;;;;1500476;77;741;-67
2024/04/14 01:17:03;;;;;;;;;;;21.60;50.40;;;;;;1497366;77;771;-69
2024/04/14 01:19:06;;;;;;;;;;;21.60;50.30;;;;;;1511569;77;1918;-71
2024/04/14 01:21:07;;;;;;;;;;;21.60;50.30;;;;;;1490592;77;716;-71
2024/04/14 01:23:09;;;;;;;;;;;21.60;50.40;;;;;;1508491;78;1271;-68
2024/04/14 01:25:11;;;;;;;;;;;21.60;50.50;;;;;;1509436;77;713;-69
2024/04/14 01:27:13;;;;;;;;;;;21.60;50.40;;;;;;1516021;77;1529;-67
2024/04/14 01:29:16;;;;;;;;;;;21.50;50.50;;;;;;1520083;77;1214;-72
2024/04/14 01:31:18;;;;;;;;;;;21.60;50.50;;;;;;1519026;78;668;-70
2024/04/14 01:33:20;;;;;;;;;;;21.50;50.60;;;;;;1517029;78;730;-68
2024/04/14 01:35:22;;;;;;;;;;;21.60;50.50;;;;;;1516270;77;660;-69
2024/04/14 01:37:23;;;;;;;;;;;21.60;50.70;;;;;;1520074;77;835;-68
2024/04/14 01:39:25;;;;;;;;;;;21.60;50.70;;;;;;1515464;77;1936;-69
2024/04/14 01:41:27;;;;;;;;;;;21.60;50.60;;;;;;1510436;77;1593;-68
2024/04/14 01:43:29;;;;;;;;;;;21.60;50.70;;;;;;1506110;77;746;-72
2024/04/14 01:45:31;;;;;;;;;;;21.50;50.60;;;;;;1512037;77;703;-70
2024/04/14 01:47:33;;;;;;;;;;;21.60;50.70;;;;;;1513839;77;745;-68
2024/04/14 01:49:35;;;;;;;;;;;21.50;50.70;;;;;;1513665;77;1143;-69
2024/04/14 01:51:37;;;;;;;;;;;21.50;50.70;;;;;;1513682;77;663;-69
2024/04/14 01:53:39;;;;;;;;;;;21.60;50.60;;;;;;1510651;77;694;-68
2024/04/14 01:55:42;;;;;;;;;;;21.60;50.70;;;;;;1517650;78;1560;-70
2024/04/14 01:57:44;;;;;;;;;;;21.60;50.70;;;;;;1514265;77;1006;-69
2024/04/14 01:59:46;;;;;;;;;;;21.60;50.70;;;;;;1510456;77;1908;-67
2024/04/14 02:01:48;;;;;;;;;;;21.60;50.70;;;;;;1512798;78;1017;-67
2024/04/14 02:03:50;;;;;;;;;;;21.60;50.70;;;;;;1502243;77;645;-68
2024/04/14 02:05:58;;;;;;;;;;;21.60;50.80;;;;;;1511264;77;750;-70
2024/04/14 02:08:00;;;;;;;;;;;21.50;50.80;;;;;;1510521;77;685;-68
2024/04/14 02:10:05;;;;;;;;;;;21.50;50.80;;;;;;1518686;77;1593;-68
2024/04/14 02:12:07;;;;;;;;;;;21.60;50.80;;;;;;1510037;77;742;-68
2024/04/14 02:14:08;;;;;;;;;;;21.60;50.90;;;;;;1509257;77;730;-67
2024/04/14 02:16:10;;;;;;;;;;;21.50;50.80;;;;;;1512036;78;742;-68
2024/04/14 02:18:12;;;;;;;;;;;21.50;50.90;;;;;;1511452;77;1924;-68
2024/04/14 02:20:14;;;;;;;;;;;21.60;50.90;;;;;;1512166;78;1143;-69
2024/04/14 02:22:16;;;;;;;;;;;21.60;50.90;;;;;;1508756;78;690;-72
2024/04/14 02:24:18;;;;;;;;;;;21.50;51.00;;;;;;1501103;77;1178;-67
2024/04/14 02:26:20;;;;;;;;;;;21.60;51.00;;;;;;1507366;77;761;-68
2024/04/14 02:28:22;;;;;;;;;;;21.50;51.00;;;;;;1499822;77;1193;-67
2024/04/14 02:30:24;;;;;;;;;;;21.50;51.00;;;;;;1504545;77;704;-67
2024/04/14 02:32:26;;;;;;;;;;;21.60;51.00;;;;;;1509523;77;1016;-69
2024/04/14 02:34:28;;;;;;;;;;;21.50;50.90;;;;;;1502772;77;687;-69
2024/04/14 02:36:30;;;;;;;;;;;21.60;51.00;;;;;;1497944;77;685;-68
2024/04/14 02:38:31;;;;;;;;;;;21.60;50.90;;;;;;1502584;78;1936;-69
2024/04/14 02:40:33;;;;;;;;;;;21.60;50.90;;;;;;1505251;78;724;-70
2024/04/14 02:42:35;;;;;;;;;;;21.60;51.00;;;;;;1497813;77;734;-69
2024/04/14 02:44:37;;;;;;;;;;;21.60;51.00;;;;;;1501893;77;647;-71
2024/04/14 02:46:39;;;;;;;;;;;21.60;51.00;;;;;;1499367;77;699;-68
2024/04/14 02:48:42;;;;;;;;;;;21.50;51.00;;;;;;1498601;77;1149;-68
2024/04/14 02:50:44;;;;;;;;;;;21.60;51.00;;;;;;1511280;78;714;-68
2024/04/14 02:52:46;;;;;;;;;;;21.50;51.00;;;;;;1505648;78;1337;-73
2024/04/14 02:54:48;;;;;;;;;;;21.50;51.00;;;;;;1503661;77;732;-69
2024/04/14 02:56:50;;;;;;;;;;;21.50;51.00;;;;;;1502965;78;797;-70
2024/04/14 02:58:52;;;;;;;;;;;21.60;51.00;;;;;;1501361;78;1912;-69
2024/04/14 03:01:01;;;;;;;;;;;21.50;51.00;;;;;;1505036;78;689;-68
2024/04/14 03:03:03;;;;;;;;;;;21.50;51.00;;;;;;1497575;78;1970;-71
2024/04/14 03:05:05;;;;;;;;;;;21.60;51.00;;;;;;1507924;77;648;-68
2024/04/14 03:07:07;;;;;;;;;;;21.50;50.90;;;;;;1490424;77;1521;-67
2024/04/14 03:09:09;;;;;;;;;;;21.50;51.00;;;;;;1507155;77;1217;-67
2024/04/14 03:11:11;;;;;;;;;;;21.60;51.00;;;;;;1487990;78;756;-67
2024/04/14 03:13:12;;;;;;;;;;;21.60;51.00;;;;;;1500955;77;650;-67
2024/04/14 03:15:15;;;;;;;;;;;21.60;51.00;;;;;;1497209;77;748;-67
2024/04/14 03:17:18;;;;;;;;;;;21.60;51.00;;;;;;1497075;77;761;-67
2024/04/14 03:19:20;;;;;;;;;;;21.60;51.00;;;;;;1495618;77;1939;-68
2024/04/14 03:21:22;;;;;;;;;;;21.60;51.00;;;;;;1506436;77;1388;-70
2024/04/14 03:23:24;;;;;;;;;;;21.50;51.00;;;;;;1498895;78;729;-67
2024/04/14 03:25:26;;;;;;;;;;;21.60;51.00;;;;;;1499230;77;1144;-70
2024/04/14 03:27:28;;;;;;;;;;;21.50;51.00;;;;;;1500373;78;1006;-71
2024/04/14 03:29:30;;;;;;;;;;;21.60;51.00;;;;;;1496405;78;1191;-70
2024/04/14 03:31:32;;;;;;;;;;;21.60;51.00;;;;;;1486673;77;640;-69
2024/04/14 03:33:34;;;;;;;;;;;21.50;51.00;;;;;;1499668;77;741;-69
2024/04/14 03:35:36;;;;;;;;;;;21.50;51.00;;;;;;1500722;77;775;-73
2024/04/14 03:37:39;;;;;;;;;;;21.60;51.00;;;;;;1501814;77;718;-70
2024/04/14 03:39:41;;;;;;;;;;;21.60;51.00;;;;;;1494692;77;1916;-70
2024/04/14 03:41:43;;;;;;;;;;;21.60;51.00;;;;;;1502241;77;810;-66
2024/04/14 03:43:45;;;;;;;;;;;21.60;51.00;;;;;;1501579;77;741;-67
2024/04/14 03:45:47;;;;;;;;;;;21.60;51.00;;;;;;1503501;77;783;-66
2024/04/14 03:47:49;;;;;;;;;;;21.60;51.10;;;;;;1499267;77;1554;-70
2024/04/14 03:49:51;;;;;;;;;;;21.60;51.10;;;;;;1493487;77;1148;-69
2024/04/14 03:51:52;;;;;;;;;;;21.50;51.10;;;;;;1495007;77;647;-70
2024/04/14 03:53:54;;;;;;;;;;;21.60;51.00;;;;;;1492891;77;681;-72
2024/04/14 03:55:56;;;;;;;;;;;21.60;51.10;;;;;;1497139;77;762;-68
2024/04/14 03:57:58;;;;;;;;;;;21.50;51.10;;;;;;1499569;77;791;-70
2024/04/14 04:00:00;;;;;;;;;;;21.60;51.20;;;;;;1495946;77;1989;-69
2024/04/14 04:02:02;;;;;;;;;;;21.60;51.30;;;;;;1498621;77;1478;-67
2024/04/14 04:04:04;;;;;;;;;;;21.50;51.30;;;;;;1494425;77;821;-70
2024/04/14 04:06:06;;;;;;;;;;;21.60;51.30;;;;;;1495867;77;617;-67
2024/04/14 04:08:08;;;;;;;;;;;21.50;51.30;;;;;;1503521;77;674;-69
2024/04/14 04:10:10;;;;;;;;;;;21.50;51.30;;;;;;1499664;77;1130;-69
2024/04/14 04:12:12;;;;;;;;;;;21.50;51.40;;;;;;1492674;77;724;-67
2024/04/14 04:14:14;;;;;;;;;;;21.50;51.40;;;;;;1493249;77;676;-70
2024/04/14 04:16:17;;;;;;;;;;;21.60;51.40;;;;;;1487977;77;1313;-68
2024/04/14 04:18:20;;;;;;;;;;;21.60;51.50;;;;;;1492807;77;1167;-67
2024/04/14 04:20:22;;;;;;;;;;;21.50;51.50;;;;;;1497383;77;1910;-69
2024/04/14 04:22:23;;;;;;;;;;;21.50;51.50;;;;;;1498334;77;620;-67
2024/04/14 04:24:27;;;;;;;;;;;21.60;51.50;;;;;;1496157;77;1111;-70
2024/04/14 04:26:29;;;;;;;;;;;21.50;51.50;;;;;;1495801;77;724;-69
2024/04/14 04:28:31;;;;;;;;;;;21.60;51.50;;;;;;1496539;77;1189;-70
2024/04/14 04:30:33;;;;;;;;;;;21.60;51.60;;;;;;1500521;78;1591;-68
2024/04/14 04:32:34;;;;;;;;;;;21.60;51.50;;;;;;1497893;77;699;-68
2024/04/14 04:34:36;;;;;;;;;;;21.60;51.60;;;;;;1502622;77;716;-68
2024/04/14 04:36:38;;;;;;;;;;;21.60;51.60;;;;;;1488574;77;685;-69
2024/04/14 04:38:45;;;;;;;;;;;21.60;51.70;;;;;;1493552;78;1154;-68
2024/04/14 04:40:44;;;;;;;;;;;21.60;51.70;;;;;;1517016;77;1926;-69
2024/04/14 04:42:46;;;;;;;;;;;21.60;51.70;;;;;;1520679;77;716;-68
2024/04/14 04:44:48;;;;;;;;;;;21.60;51.70;;;;;;1512700;77;1565;-68
2024/04/14 04:46:49;;;;;;;;;;;21.50;51.70;;;;;;1518546;77;673;-68
2024/04/14 04:48:51;;;;;;;;;;;21.60;51.80;;;;;;1513036;76;1134;-68
2024/04/14 04:50:53;;;;;;;;;;;21.50;51.80;;;;;;1513939;78;711;-68
2024/04/14 04:52:56;;;;;;;;;;;21.60;51.90;;;;;;1512330;77;754;-68
2024/04/14 04:54:58;;;;;;;;;;;21.50;51.90;;;;;;1514378;77;728;-68
2024/04/14 04:56:59;;;;;;;;;;;21.50;51.90;;;;;;1513932;77;740;-66
2024/04/14 04:59:02;;;;;;;;;;;21.50;51.90;;;;;;1512493;78;2062;-69
2024/04/14 05:01:04;;;;;;;;;;;21.50;52.00;;;;;;1515327;78;690;-70
2024/04/14 05:03:06;;;;;;;;;;;21.50;52.00;;;;;;1503525;77;792;-69
2024/04/14 05:05:07;;;;;;;;;;;21.60;52.10;;;;;;1517202;78;722;-70
2024/04/14 05:07:09;;;;;;;;;;;21.50;52.10;;;;;;1508944;77;712;-69
2024/04/14 05:09:11;;;;;;;;;;;21.50;52.10;;;;;;1514372;77;1139;-73
2024/04/14 05:11:13;;;;;;;;;;;21.50;52.10;;;;;;1511860;77;704;-68
2024/04/14 05:13:15;;;;;;;;;;;21.50;52.10;;;;;;1515433;78;1512;-70
2024/04/14 05:15:17;;;;;;;;;;;21.60;52.20;;;;;;1517468;77;721;-68
2024/04/14 05:17:19;;;;;;;;;;;21.50;52.30;;;;;;1516764;77;696;-71
2024/04/14 05:19:21;;;;;;;;;;;21.50;52.20;;;;;;1505519;78;1941;-70
2024/04/14 05:21:23;;;;;;;;;;;21.50;52.30;;;;;;1511085;78;773;-69
2024/04/14 05:23:24;;;;;;;;;;;21.50;52.30;;;;;;1515119;78;748;-70
2024/04/14 05:25:26;;;;;;;;;;;21.50;52.30;;;;;;1518057;77;1109;-68
2024/04/14 05:27:28;;;;;;;;;;;21.50;52.30;;;;;;1510181;77;1583;-69
2024/04/14 05:29:31;;;;;;;;;;;21.50;52.40;;;;;;1509976;77;1181;-71
2024/04/14 05:31:32;;;;;;;;;;;21.50;52.40;;;;;;1516975;77;796;-68
2024/04/14 05:33:34;;;;;;;;;;;21.50;52.40;;;;;;1508565;77;688;-68
2024/04/14 05:35:36;;;;;;;;;;;21.50;52.40;;;;;;1515173;77;653;-69
2024/04/14 05:37:38;;;;;;;;;;;21.60;52.50;;;;;;1519806;78;673;-69
2024/04/14 05:39:40;;;;;;;;;;;21.50;52.50;;;;;;1509321;78;1941;-70
2024/04/14 05:41:42;;;;;;;;;;;21.50;52.50;;;;;;1511291;77;1343;-68
2024/04/14 05:43:44;;;;;;;;;;;21.50;52.50;;;;;;1511383;77;706;-68
2024/04/14 05:45:45;;;;;;;;;;;21.50;52.50;;;;;;1513155;77;727;-69
2024/04/14 05:47:47;;;;;;;;;;;21.50;52.50;;;;;;1513906;77;576;-67
2024/04/14 05:49:50;;;;;;;;;;;21.50;52.50;;;;;;1512385;76;1136;-69
2024/04/14 05:51:51;;;;;;;;;;;21.50;52.50;;;;;;1515957;78;820;-68
2024/04/14 05:53:53;;;;;;;;;;;21.50;52.50;;;;;;1518451;78;617;-67
2024/04/14 05:55:55;;;;;;;;;;;21.50;52.60;;;;;;1516320;77;1593;-70
2024/04/14 05:57:57;;;;;;;;;;;21.50;52.60;;;;;;1511973;77;765;-69
2024/04/14 05:59:59;;;;;;;;;;;21.60;52.60;;;;;;1514174;77;1949;-68
2024/04/14 06:02:01;;;;;;;;;;;21.50;52.60;;;;;;1513578;78;702;-70
2024/04/14 06:04:03;;;;;;;;;;;21.50;52.60;;;;;;1514103;77;665;-67
2024/04/14 06:06:05;;;;;;;;;;;21.50;52.60;;;;;;1514960;78;685;-68
2024/04/14 06:08:07;;;;;;;;;;;21.50;52.60;;;;;;1511327;77;639;-68
2024/04/14 06:10:09;;;;;;;;;;;21.50;52.60;;;;;;1515360;77;1641;-68
2024/04/14 06:12:11;;;;;;;;;;;21.50;52.60;;;;;;1510796;77;736;-72
2024/04/14 06:14:12;;;;;;;;;;;21.50;52.60;;;;;;1517530;78;676;-69
2024/04/14 06:16:14;;;;;;;;;;;21.50;52.60;;;;;;1513153;77;753;-67
2024/04/14 06:18:16;;;;;;;;;;;21.60;52.70;;;;;;1512905;77;775;-68
2024/04/14 06:20:18;;;;;;;;;;;21.50;52.70;;;;;;1515405;76;1920;-69
2024/04/14 06:22:20;;;;;;;;;;;21.50;52.70;;;;;;1519830;78;759;-68
2024/04/14 06:24:22;;;;;;;;;;;21.60;52.70;;;;;;1516777;77;610;-69
2024/04/14 06:26:24;;;;;;;;;;;21.60;52.70;;;;;;1517901;77;1085;-67
2024/04/14 06:28:26;;;;;;;;;;;21.50;52.80;;;;;;1525231;77;1217;-68
2024/04/14 06:30:28;;;;;;;;;;;21.50;52.80;;;;;;1526035;77;687;-70
2024/04/14 06:32:30;;;;;;;;;;;21.50;52.80;;;;;;1521977;77;684;-68
2024/04/14 06:34:32;;;;;;;;;;;21.50;52.80;;;;;;1531017;77;699;-67
2024/04/14 06:36:34;;;;;;;;;;;21.50;52.80;;;;;;1523415;77;1570;-70
2024/04/14 06:38:38;;;;;;;;;;;21.50;52.80;;;;;;1523170;77;1147;-69
2024/04/14 06:40:40;;;;;;;;;;;21.60;52.80;;;;;;1527627;77;1921;-67
2024/04/14 06:42:42;;;;;;;;;;;21.60;52.80;;;;;;1528338;77;683;-67
2024/04/14 06:44:43;;;;;;;;;;;21.50;52.80;;;;;;1526230;77;590;-68
2024/04/14 06:46:45;;;;;;;;;;;21.50;52.90;;;;;;1526471;77;685;-68
2024/04/14 06:48:47;;;;;;;;;;;21.60;52.80;;;;;;1524043;77;1156;-67
2024/04/14 06:50:49;;;;;;;;;;;21.50;52.80;;;;;;1523765;76;1328;-70
2024/04/14 06:52:51;;;;;;;;;;;21.50;52.80;;;;;;1523630;77;702;-65
2024/04/14 06:54:53;;;;;;;;;;;21.60;52.80;;;;;;1528943;77;673;-68
2024/04/14 06:56:55;;;;;;;;;;;21.60;52.80;;;;;;1525952;77;781;-67
2024/04/14 06:58:57;;;;;;;;;;;21.50;52.90;;;;;;1525493;77;1151;-68
2024/04/14 07:00:58;;;;;;;;;;;21.50;52.90;;;;;;1524193;77;1926;-70
2024/04/14 07:03:00;;;;;;;;;;;21.50;52.90;;;;;;1525214;77;729;-70
2024/04/14 07:05:03;;;;;;;;;;;21.60;52.90;;;;;;1525851;77;1581;-71
2024/04/14 07:07:05;;;;;;;;;;;21.50;52.90;;;;;;1527858;77;759;-70
2024/04/14 07:09:07;;;;;;;;;;;21.50;52.80;;;;;;1524162;77;1088;-70
2024/04/14 07:11:09;;;;;;;;;;;21.50;52.80;;;;;;1523539;77;798;-70
2024/04/14 07:13:11;;;;;;;;;;;21.50;52.80;;;;;;1522914;77;719;-69
2024/04/14 07:15:13;;;;;;;;;;;21.60;52.70;;;;;;1523101;77;769;-71
2024/04/14 07:17:15;;;;;;;;;;;21.50;52.70;;;;;;1524608;77;708;-69
2024/04/14 07:19:17;;;;;;;;;;;21.60;52.70;;;;;;1523077;76;1205;-69
2024/04/14 07:21:19;;;;;;;;;;;21.50;52.70;;;;;;1516570;77;1954;-67
2024/04/14 07:23:21;;;;;;;;;;;21.60;52.70;;;;;;1519624;77;740;-69
2024/04/14 07:25:23;;;;;;;;;;;21.60;52.90;;;;;;1519037;77;774;-67
2024/04/14 07:27:24;;;;;;;;;;;21.60;52.80;;;;;;1523102;77;1122;-71
2024/04/14 07:29:26;;;;;;;;;;;21.60;52.80;;;;;;1526544;77;1195;-69
2024/04/14 07:31:28;;;;;;;;;;;21.70;52.80;;;;;;1522304;77;679;-73
2024/04/14 07:33:30;;;;;;;;;;;21.70;52.80;;;;;;1517363;77;1595;-74
2024/04/14 07:35:32;;;;;;;;;;;21.70;52.70;;;;;;1511629;77;697;-70
2024/04/14 07:37:34;;;;;;;;;;;21.70;52.50;;;;;;1502341;77;682;-68
2024/04/14 07:39:36;;;;;;;;;;;21.70;50.70;;;;;;1562151;74;1144;-70
2024/04/14 07:41:38;;;;;;;;;;;21.70;50.50;;;;;;1556908;74;1927;-69
2024/04/14 07:43:40;;;;;;;;;;;21.60;49.00;;;;;;1564895;74;670;-68
2024/04/14 07:45:42;;;;;;;;;;;21.70;48.60;;;;;;1560485;74;633;-70
2024/04/14 07:47:44;;;;;;;;;;;21.60;46.90;;;;;;1565391;74;1569;-70
2024/04/14 07:49:46;;;;;;;;;;;21.70;47.60;;;;;;1560740;74;1165;-70
2024/04/14 07:51:48;;;;;;;;;;;21.60;48.20;;;;;;1559196;74;669;-69
2024/04/14 07:53:51;;;;;;;;;;;21.60;48.60;;;;;;1565649;74;731;-70
2024/04/14 07:55:54;;;;;;;;;;;21.60;47.10;;;;;;1562508;74;878;-69
2024/04/14 07:57:56;;;;;;;;;;;21.60;46.40;;;;;;1566228;75;746;-71
2024/04/14 07:59:58;;;;;;;;;;;21.60;46.10;;;;;;1557238;74;1137;-69
2024/04/14 08:02:00;;;;;;;;;;;21.60;46.80;;;;;;1557487;74;1920;-69
2024/04/14 08:04:02;;;;;;;;;;;21.60;46.60;;;;;;1561059;74;746;-69
2024/04/14 08:06:03;;;;;;;;;;;21.60;45.20;;;;;;1562521;74;671;-71
2024/04/14 08:08:06;;;;;;;;;;;21.60;45.50;;;;;;1567523;74;948;-69
2024/04/14 08:10:08;;;;;;;;;;;21.60;45.40;;;;;;1564169;74;1122;-70
2024/04/14 08:12:09;;;;;;;;;;;21.50;45.10;;;;;;1565387;74;1288;-69
2024/04/14 08:14:13;;;;;;;;;;;21.70;45.30;;;;;;1557949;74;1369;-69
2024/04/14 08:16:15;;;;;;;;;;;21.60;45.30;;;;;;1558583;74;1588;-71
2024/04/14 08:18:18;;;;;;;;;;;21.60;45.00;;;;;;1555057;74;1400;-69
2024/04/14 08:20:20;;;;;;;;;;;21.60;44.80;;;;;;1548298;74;1923;-70
2024/04/14 08:22:22;;;;;;;;;;;21.60;44.60;;;;;;1550830;74;1136;-70
2024/04/14 08:24:24;;;;;;;;;;;21.60;44.50;;;;;;1559189;74;1285;-69
2024/04/14 08:26:26;;;;;;;;;;;21.60;43.90;;;;;;1561030;74;1292;-69
2024/04/14 08:28:28;;;;;;;;;;;21.60;44.40;;;;;;1554793;74;1151;-72
2024/04/14 08:30:30;;;;;;;;;;;21.60;44.40;;;;;;1554380;74;1566;-68
2024/04/14 08:32:32;;;;;;;;;;;21.70;43.90;;;;;;1555259;74;1195;-68
2024/04/14 08:34:35;;;;;;;;;;;21.60;43.80;;;;;;1553519;74;1381;-69
2024/04/14 08:36:37;;;;;;;;;;;21.60;43.50;;;;;;1548412;75;1391;-68
2024/04/14 08:38:39;;;;;;;;;;;21.60;43.20;;;;;;1556657;74;1337;-72
2024/04/14 08:40:41;;;;;;;;;;;21.60;43.20;;;;;;1555160;74;1912;-72
2024/04/14 08:42:43;;;;;;;;;;;21.60;43.10;;;;;;1554221;74;754;-68
2024/04/14 08:44:45;;;;;;;;;;;21.60;43.10;;;;;;1544444;74;1351;-71
2024/04/14 08:46:47;;;;;;;;;;;21.60;43.10;;;;;;1539396;74;671;-72
2024/04/14 08:48:49;;;;;;;;;;;21.70;43.10;;;;;;1546472;74;1149;-74
2024/04/14 08:50:51;;;;;;;;;;;21.60;42.50;;;;;;1555340;74;643;-68
2024/04/14 08:52:53;;;;;;;;;;;21.60;42.60;;;;;;1553183;74;694;-69
2024/04/14 08:54:55;;;;;;;;;;;21.60;43.10;;;;;;1542980;74;781;-71
2024/04/14 08:56:57;;;;;;;;;;;21.60;43.30;;;;;;1560697;74;748;-71
2024/04/14 08:59:00;;;;;;;;;;;21.60;43.40;;;;;;1552951;74;1677;-74
2024/04/14 09:01:02;;;;;;;;;;;21.60;43.30;;;;;;1549820;74;1932;-71
2024/04/14 09:03:05;;;;;;;;;;;21.70;43.50;;;;;;1550337;74;655;-74
2024/04/14 09:05:10;;;;;;;;;;;21.70;43.60;;;;;;1553221;74;704;-71
2024/04/14 09:07:12;;;;;;;;;;;21.70;43.80;;;;;;1553024;74;668;-69
2024/04/14 09:09:13;;;;;;;;;;;21.70;43.90;;;;;;1552883;74;1381;-68
2024/04/14 09:11:15;;;;;;;;;;;21.70;44.10;;;;;;1555461;74;1527;-71
2024/04/14 09:13:17;;;;;;;;;;;21.70;44.30;;;;;;1550393;74;703;-70
2024/04/14 09:15:19;;;;;;;;;;;21.80;44.30;;;;;;1550674;74;785;-72
2024/04/14 09:17:21;;;;;;;;;;;21.70;44.50;;;;;;1556923;74;1034;-71
2024/04/14 09:19:23;;;;;;;;;;;21.70;44.50;;;;;;1553957;74;1199;-69
2024/04/14 09:21:25;;;;;;;;;;;21.70;44.60;;;;;;1555756;74;1917;-71
2024/04/14 09:23:28;;;;;;;;;;;21.70;44.80;;;;;;1553236;74;698;-70
2024/04/14 09:25:30;;;;;;;;;;;21.80;44.80;;;;;;1555689;75;1379;-73
2024/04/14 09:27:32;;;;;;;;;;;21.70;45.00;;;;;;1557284;74;721;-72
2024/04/14 09:29:34;;;;;;;;;;;21.80;44.90;;;;;;1548240;74;1166;-68
2024/04/14 09:31:36;;;;;;;;;;;21.70;45.00;;;;;;1551786;75;722;-70
2024/04/14 09:33:38;;;;;;;;;;;21.80;45.10;;;;;;1552705;74;609;-68
2024/04/14 09:35:40;;;;;;;;;;;21.70;45.10;;;;;;1552767;74;684;-68
2024/04/14 09:37:43;;;;;;;;;;;21.70;45.20;;;;;;1560579;74;1353;-74
2024/04/14 09:39:45;;;;;;;;;;;21.70;45.20;;;;;;1551946;74;1918;-71
2024/04/14 09:41:47;;;;;;;;;;;21.70;45.20;;;;;;1554608;74;1950;-70
2024/04/14 09:43:51;;;;;;;;;;;21.70;45.20;;;;;;1548964;74;692;-70
2024/04/14 09:45:52;;;;;;;;;;;21.70;45.20;;;;;;1545110;74;1766;-71
2024/04/14 09:47:55;;;;;;;;;;;21.70;45.30;;;;;;1553003;74;658;-71
2024/04/14 09:49:57;;;;;;;;;;;21.70;45.30;;;;;;1550604;74;1059;-72
2024/04/14 09:51:59;;;;;;;;;;;21.70;45.50;;;;;;1540192;74;714;-69
2024/04/14 09:54:01;;;;;;;;;;;21.70;45.40;;;;;;1557054;74;1521;-70
2024/04/14 09:56:03;;;;;;;;;;;21.70;45.20;;;;;;1545456;75;762;-69
2024/04/14 09:58:05;;;;;;;;;;;21.80;45.10;;;;;;1547577;75;697;-70
2024/04/14 10:00:08;;;;;;;;;;;21.70;45.20;;;;;;1546973;74;1126;-73
2024/04/14 10:02:11;;;;;;;;;;;21.70;45.20;;;;;;1555189;74;1924;-69
2024/04/14 10:04:13;;;;;;;;;;;21.70;45.20;;;;;;1556159;74;1775;-70
2024/04/14 10:06:15;;;;;;;;;;;21.70;45.30;;;;;;1546891;74;703;-73
2024/04/14 10:08:18;;;;;;;;;;;21.70;45.40;;;;;;1552577;74;1509;-72
2024/04/14 10:10:19;;;;;;;;;;;21.70;45.30;;;;;;1551986;74;1163;-70
2024/04/14 10:12:21;;;;;;;;;;;21.70;45.20;;;;;;1546479;74;678;-71
2024/04/14 10:14:26;;;;;;;;;;;21.70;45.30;;;;;;1551573;74;676;-71
2024/04/14 10:16:27;;;;;;;;;;;21.70;45.20;;;;;;1520306;76;1560;-69
2024/04/14 10:18:33;;;;;;;;;;;21.70;45.30;;;;;;1563666;74;1166;-70
2024/04/14 10:20:34;;;;;;;;;;;21.80;45.20;;;;;;1543571;75;1637;-71
2024/04/14 10:22:36;;;;;;;;;;;21.70;45.20;;;;;;1557594;74;1948;-68
2024/04/14 10:24:47;;;;;;;;;;;21.70;45.20;;;;;;1566704;74;663;-70
2024/04/14 10:26:49;;;;;;;;;;;21.70;45.30;;;;;;1568216;74;723;-73
2024/04/14 10:28:55;;;;;;;;;;;21.70;45.30;;;;;;1561412;74;1205;-68
2024/04/14 10:31:00;;;;;;;;;;;21.80;45.30;;;;;;1565343;74;730;-71
2024/04/14 10:33:02;;;;;;;;;;;21.70;45.20;;;;;;1563538;74;684;-69
2024/04/14 10:35:15;;;;;;;;;;;21.70;45.20;;;;;;1564199;74;719;-71
2024/04/14 10:37:23;;;;;;;;;;;21.70;45.20;;;;;;1559234;74;1479;-67
2024/04/14 10:39:25;;;;;;;;;;;21.70;45.10;;;;;;1563184;74;1411;-69
2024/04/14 10:41:28;;;;;;;;;;;21.70;45.20;;;;;;1558789;74;1923;-72
2024/04/14 10:43:29;;;;;;;;;;;21.70;45.20;;;;;;1558115;74;678;-72
2024/04/14 10:45:31;;;;;;;;;;;21.70;45.10;;;;;;1565056;74;718;-73
2024/04/14 10:47:33;;;;;;;;;;;21.70;45.20;;;;;;1557211;74;657;-72
2024/04/14 10:49:35;;;;;;;;;;;21.70;45.20;;;;;;1553757;74;1370;-72
2024/04/14 10:51:38;;;;;;;;;;;21.70;45.10;;;;;;1552184;74;692;-69
2024/04/14 10:53:40;;;;;;;;;;;21.60;45.00;;;;;;1560040;74;634;-72
2024/04/14 10:55:42;;;;;;;;;;;21.60;45.00;;;;;;1558015;74;663;-71
2024/04/14 10:57:44;;;;;;;;;;;21.70;45.10;;;;;;1545565;74;710;-70
2024/04/14 10:59:46;;;;;;;;;;;21.70;45.00;;;;;;1553445;74;1157;-69
2024/04/14 11:01:47;;;;;;;;;;;21.60;44.90;;;;;;1559292;74;1938;-70
2024/04/14 11:03:49;;;;;;;;;;;21.70;45.00;;;;;;1547799;74;677;-69
2024/04/14 11:05:51;;;;;;;;;;;21.70;45.00;;;;;;1552163;74;1307;-69
2024/04/14 11:07:53;;;;;;;;;;;21.70;45.00;;;;;;1555738;74;1386;-72
2024/04/14 11:09:55;;;;;;;;;;;21.70;45.00;;;;;;1561324;74;1134;-71
2024/04/14 11:11:57;;;;;;;;;;;21.70;44.70;;;;;;1550433;74;723;-69
2024/04/14 11:13:59;;;;;;;;;;;21.70;44.50;;;;;;1554495;74;669;-72
2024/04/14 11:16:02;;;;;;;;;;;21.70;44.70;;;;;;1556344;74;821;-71
2024/04/14 11:18:04;;;;;;;;;;;21.70;44.70;;;;;;1553095;75;1018;-72
2024/04/14 11:20:06;;;;;;;;;;;21.70;44.70;;;;;;1544074;75;1558;-69
2024/04/14 11:22:08;;;;;;;;;;;21.70;44.40;;;;;;1549863;74;1910;-70
2024/04/14 11:24:10;;;;;;;;;;;21.60;44.50;;;;;;1553889;74;759;-71
2024/04/14 11:26:12;;;;;;;;;;;21.70;44.60;;;;;;1545597;74;640;-73
2024/04/14 11:28:15;;;;;;;;;;;21.60;44.40;;;;;;1548057;74;653;-71
2024/04/14 11:30:17;;;;;;;;;;;21.60;44.40;;;;;;1546082;74;1130;-71
2024/04/14 11:32:32;;;;;;;;;;;21.70;44.30;;;;;;1548390;74;669;-72
2024/04/14 11:34:31;;;;;;;;;;;21.60;44.30;;;;;;1552441;74;1700;-74
2024/04/14 11:36:33;;;;;;;;;;;21.60;44.20;;;;;;1554076;75;669;-68
2024/04/14 11:38:35;;;;;;;;;;;21.70;44.10;;;;;;1555173;74;1363;-71
2024/04/14 11:40:37;;;;;;;;;;;21.70;44.40;;;;;;1526235;76;776;-74
2024/04/14 11:42:38;;;;;;;;;;;21.70;44.30;;;;;;1552191;74;1933;-69
2024/04/14 11:44:40;;;;;;;;;;;21.70;44.10;;;;;;1554684;74;660;-70
2024/04/14 11:46:42;;;;;;;;;;;21.70;44.20;;;;;;1556962;74;694;-70
2024/04/14 11:48:44;;;;;;;;;;;21.60;44.10;;;;;;1556787;74;1541;-73
2024/04/14 11:50:46;;;;;;;;;;;21.70;44.10;;;;;;1546997;74;723;-71
2024/04/14 11:52:48;;;;;;;;;;;21.60;44.10;;;;;;1551526;75;679;-72
2024/04/14 11:54:50;;;;;;;;;;;21.60;44.20;;;;;;1543506;74;743;-70
2024/04/14 11:56:52;;;;;;;;;;;21.60;44.00;;;;;;1548774;74;745;-68
2024/04/14 11:58:54;;;;;;;;;;;21.60;44.10;;;;;;1551307;74;1150;-69
2024/04/14 12:00:56;;;;;;;;;;;21.70;44.20;;;;;;1554310;74;707;-71
2024/04/14 12:02:58;;;;;;;;;;;21.60;44.10;;;;;;1554529;75;1912;-72
2024/04/14 12:05:00;;;;;;;;;;;21.60;44.10;;;;;;1549019;74;764;-70
2024/04/14 12:07:02;;;;;;;;;;;21.70;44.30;;;;;;1547272;74;696;-71
2024/04/14 12:09:04;;;;;;;;;;;21.60;44.20;;;;;;1552475;74;1135;-73